sensor_id;sensor_type;location;lat;lon;timestamp;temperature;humidity
19385;DHT22;9828;54.122;17.974;2023-04-06T00:29:56;0.70;99.90
19385;DHT22;9828;54.122;17.974;2023-04-06T00:35:18;0.80;99.90
19385;DHT22;9828;54.122;17.974;2023-04-06T02:08:29;1.20;99.90
19385;DHT22;9828;54.122;17.974;2023-04-06T02:19:12;0.20;99.90
19385;DHT22;9828;54.122;17.974;2023-04-06T02:24:33;0.10;99.90
19385;DHT22;9828;54.122;17.974;2023-04-06T02:29:55;-0.20;99.90
19385;DHT22;9828;54.122;17.974;2023-04-06T02:35:16;-0.20;99.90
19385;DHT22;9828;54.122;17.974;2023-04-06T02:40:40;-0.20;99.90
19385;DHT22;9828;54.122;17.974;2023-04-06T02:46:12;-0.20;99.90
19385;DHT22;9828;54.122;17.974;2023-04-06T02:51:33;-0.20;99.90
19385;DHT22;9828;54.122;17.974;2023-04-06T02:57:14;-0.20;99.90
19385;DHT22;9828;54.122;17.974;2023-04-06T03:02:38;-0.20;99.90
19385;DHT22;9828;54.122;17.974;2023-04-06T03:08:03;-0.30;99.90
19385;DHT22;9828;54.122;17.974;2023-04-06T03:13:44;-0.40;99.90
19385;DHT22;9828;54.122;17.974;2023-04-06T03:24:29;-0.30;99.90
19385;DHT22;9828;54.122;17.974;2023-04-06T03:29:50;-0.30;99.90
19385;DHT22;9828;54.122;17.974;2023-04-06T03:35:19;-0.40;99.90
19385;DHT22;9828;54.122;17.974;2023-04-06T03:40:40;-0.30;99.90
19385;DHT22;9828;54.122;17.974;2023-04-06T03:46:01;-0.30;99.90
19385;DHT22;9828;54.122;17.974;2023-04-06T03:51:23;-0.40;99.90
19385;DHT22;9828;54.122;17.974;2023-04-06T03:56:44;-0.40;99.90
19385;DHT22;9828;54.122;17.974;2023-04-06T04:02:05;-0.40;99.90
19385;DHT22;9828;54.122;17.974;2023-04-06T04:07:26;-0.50;99.90
19385;DHT22;9828;54.122;17.974;2023-04-06T04:12:48;-0.50;99.90
19385;DHT22;9828;54.122;17.974;2023-04-06T04:18:09;-0.50;99.90
19385;DHT22;9828;54.122;17.974;2023-04-06T04:23:33;-0.50;99.90
19385;DHT22;9828;54.122;17.974;2023-04-06T04:28:55;-0.50;99.90
19385;DHT22;9828;54.122;17.974;2023-04-06T04:34:17;-0.50;99.90
19385;DHT22;9828;54.122;17.974;2023-04-06T04:39:40;-0.70;99.90
19385;DHT22;9828;54.122;17.974;2023-04-06T04:45:02;-0.70;99.90
19385;DHT22;9828;54.122;17.974;2023-04-06T04:50:31;-0.70;99.90
19385;DHT22;9828;54.122;17.974;2023-04-06T04:55:52;-0.60;99.90
19385;DHT22;9828;54.122;17.974;2023-04-06T05:01:14;-0.60;99.90
19385;DHT22;9828;54.122;17.974;2023-04-06T05:06:37;-0.40;99.90
19385;DHT22;9828;54.122;17.974;2023-04-06T05:11:59;-0.30;99.90
19385;DHT22;9828;54.122;17.974;2023-04-06T05:17:25;-0.10;99.90
19385;DHT22;9828;54.122;17.974;2023-04-06T05:22:46;0.10;99.90
19385;DHT22;9828;54.122;17.974;2023-04-06T05:28:08;0.20;99.90
19385;DHT22;9828;54.122;17.974;2023-04-06T05:33:31;0.20;99.90
19385;DHT22;9828;54.122;17.974;2023-04-06T05:39:00;0.30;99.90
19385;DHT22;9828;54.122;17.974;2023-04-06T05:44:51;0.50;99.90
19385;DHT22;9828;54.122;17.974;2023-04-06T05:50:15;0.70;99.90
19385;DHT22;9828;54.122;17.974;2023-04-06T05:55:38;0.80;99.90
19385;DHT22;9828;54.122;17.974;2023-04-06T06:01:04;1.00;99.90
19385;DHT22;9828;54.122;17.974;2023-04-06T06:06:33;1.20;99.90
19385;DHT22;9828;54.122;17.974;2023-04-06T06:12:06;1.40;99.90
19385;DHT22;9828;54.122;17.974;2023-04-06T06:17:28;1.70;99.90
19385;DHT22;9828;54.122;17.974;2023-04-06T06:22:50;1.90;99.90
19385;DHT22;9828;54.122;17.974;2023-04-06T06:28:14;2.10;99.90
19385;DHT22;9828;54.122;17.974;2023-04-06T06:33:35;2.40;99.90
19385;DHT22;9828;54.122;17.974;2023-04-06T06:49:41;6.60;71.00
19385;DHT22;9828;54.122;17.974;2023-04-06T07:05:46;9.10;26.60
19385;DHT22;9828;54.122;17.974;2023-04-06T07:11:15;9.50;22.20
19385;DHT22;9828;54.122;17.974;2023-04-06T07:21:58;10.70;17.40
19385;DHT22;9828;54.122;17.974;2023-04-06T07:27:19;11.00;16.20
19385;DHT22;9828;54.122;17.974;2023-04-06T07:32:41;11.10;14.90
19385;DHT22;9828;54.122;17.974;2023-04-06T07:38:03;11.00;13.30
19385;DHT22;9828;54.122;17.974;2023-04-06T07:43:25;11.50;12.50
19385;DHT22;9828;54.122;17.974;2023-04-06T07:48:46;11.90;9.40
19385;DHT22;9828;54.122;17.974;2023-04-06T07:54:08;12.40;7.80
19385;DHT22;9828;54.122;17.974;2023-04-06T07:59:29;12.60;6.40
19385;DHT22;9828;54.122;17.974;2023-04-06T08:04:50;12.40;6.10
19385;DHT22;9828;54.122;17.974;2023-04-06T08:10:12;12.20;6.90
19385;DHT22;9828;54.122;17.974;2023-04-06T08:15:33;11.70;6.30
19385;DHT22;9828;54.122;17.974;2023-04-06T08:20:55;11.80;5.90
19385;DHT22;9828;54.122;17.974;2023-04-06T08:26:16;11.30;7.50
19385;DHT22;9828;54.122;17.974;2023-04-06T08:31:37;11.10;7.50
19385;DHT22;9828;54.122;17.974;2023-04-06T08:36:58;12.10;6.30
19385;DHT22;9828;54.122;17.974;2023-04-06T08:42:22;13.00;3.70
19385;DHT22;9828;54.122;17.974;2023-04-06T08:47:52;13.60;1.90
19385;DHT22;9828;54.122;17.974;2023-04-06T08:53:15;12.30;2.80
19385;DHT22;9828;54.122;17.974;2023-04-06T08:58:39;12.70;3.70
19385;DHT22;9828;54.122;17.974;2023-04-06T09:04:00;12.10;3.70
19385;DHT22;9828;54.122;17.974;2023-04-06T09:09:22;10.80;5.00
19385;DHT22;9828;54.122;17.974;2023-04-06T09:14:46;9.70;6.30
19385;DHT22;9828;54.122;17.974;2023-04-06T09:20:07;8.50;7.60
19385;DHT22;9828;54.122;17.974;2023-04-06T09:25:29;8.30;8.70
19385;DHT22;9828;54.122;17.974;2023-04-06T09:30:52;8.20;9.10
19385;DHT22;9828;54.122;17.974;2023-04-06T09:36:14;8.10;9.50
19385;DHT22;9828;54.122;17.974;2023-04-06T09:41:36;9.90;7.60
19385;DHT22;9828;54.122;17.974;2023-04-06T09:46:57;11.70;4.80
19385;DHT22;9828;54.122;17.974;2023-04-06T09:52:21;13.50;3.00
19385;DHT22;9828;54.122;17.974;2023-04-06T09:58:04;14.50;1.00
19385;DHT22;9828;54.122;17.974;2023-04-06T10:03:45;14.80;1.00
19385;DHT22;9828;54.122;17.974;2023-04-06T10:09:08;13.60;1.10
19385;DHT22;9828;54.122;17.974;2023-04-06T10:14:31;12.10;2.60
19385;DHT22;9828;54.122;17.974;2023-04-06T10:20:15;11.50;4.00
19385;DHT22;9828;54.122;17.974;2023-04-06T10:25:36;11.90;3.40
19385;DHT22;9828;54.122;17.974;2023-04-06T10:31:00;11.80;3.20
19385;DHT22;9828;54.122;17.974;2023-04-06T10:36:26;11.70;3.60
19385;DHT22;9828;54.122;17.974;2023-04-06T10:41:48;13.00;3.30
19385;DHT22;9828;54.122;17.974;2023-04-06T10:47:16;14.20;1.00
19385;DHT22;9828;54.122;17.974;2023-04-06T10:52:41;13.20;1.50
19385;DHT22;9828;54.122;17.974;2023-04-06T10:58:05;12.30;2.70
19385;DHT22;9828;54.122;17.974;2023-04-06T11:03:26;11.60;3.70
19385;DHT22;9828;54.122;17.974;2023-04-06T11:08:49;11.20;4.40
19385;DHT22;9828;54.122;17.974;2023-04-06T11:14:10;11.60;4.20
19385;DHT22;9828;54.122;17.974;2023-04-06T11:19:31;12.60;3.70
19385;DHT22;9828;54.122;17.974;2023-04-06T11:25:05;12.70;2.70
19385;DHT22;9828;54.122;17.974;2023-04-06T11:30:27;12.20;3.10
19385;DHT22;9828;54.122;17.974;2023-04-06T11:35:48;11.30;4.00
19385;DHT22;9828;54.122;17.974;2023-04-06T11:41:09;11.40;4.70
19385;DHT22;9828;54.122;17.974;2023-04-06T11:46:31;11.50;4.20
19385;DHT22;9828;54.122;17.974;2023-04-06T11:51:52;12.00;3.30
19385;DHT22;9828;54.122;17.974;2023-04-06T11:57:13;12.30;2.90
19385;DHT22;9828;54.122;17.974;2023-04-06T12:02:39;12.70;2.80
19385;DHT22;9828;54.122;17.974;2023-04-06T12:08:00;13.00;3.00
19385;DHT22;9828;54.122;17.974;2023-04-06T12:13:22;13.40;2.80
19385;DHT22;9828;54.122;17.974;2023-04-06T12:18:43;12.70;2.80
19385;DHT22;9828;54.122;17.974;2023-04-06T12:24:05;12.10;3.50
19385;DHT22;9828;54.122;17.974;2023-04-06T12:29:26;12.40;3.50
19385;DHT22;9828;54.122;17.974;2023-04-06T12:34:47;12.90;3.40
19385;DHT22;9828;54.122;17.974;2023-04-06T12:40:08;13.50;2.70
19385;DHT22;9828;54.122;17.974;2023-04-06T12:45:32;13.50;2.80
19385;DHT22;9828;54.122;17.974;2023-04-06T12:51:00;13.30;2.80
19385;DHT22;9828;54.122;17.974;2023-04-06T12:56:22;12.90;3.20
19385;DHT22;9828;54.122;17.974;2023-04-06T13:01:44;12.60;3.50
19385;DHT22;9828;54.122;17.974;2023-04-06T13:07:05;12.50;3.60
19385;DHT22;9828;54.122;17.974;2023-04-06T13:12:32;12.40;3.30
19385;DHT22;9828;54.122;17.974;2023-04-06T13:18:03;12.00;3.40
19385;DHT22;9828;54.122;17.974;2023-04-06T13:23:25;12.00;4.10
19385;DHT22;9828;54.122;17.974;2023-04-06T13:28:47;11.70;4.30
19385;DHT22;9828;54.122;17.974;2023-04-06T13:34:08;11.80;4.30
19385;DHT22;9828;54.122;17.974;2023-04-06T13:39:29;11.90;4.40
19385;DHT22;9828;54.122;17.974;2023-04-06T13:44:52;11.70;5.60
19385;DHT22;9828;54.122;17.974;2023-04-06T13:50:14;11.70;5.80
19385;DHT22;9828;54.122;17.974;2023-04-06T13:55:35;11.20;6.10
19385;DHT22;9828;54.122;17.974;2023-04-06T14:01:08;10.90;6.40
19385;DHT22;9828;54.122;17.974;2023-04-06T14:06:30;10.50;6.40
19385;DHT22;9828;54.122;17.974;2023-04-06T14:11:52;10.40;6.70
19385;DHT22;9828;54.122;17.974;2023-04-06T14:17:13;10.40;6.70
19385;DHT22;9828;54.122;17.974;2023-04-06T14:22:35;10.10;6.80
19385;DHT22;9828;54.122;17.974;2023-04-06T14:27:57;9.70;6.70
19385;DHT22;9828;54.122;17.974;2023-04-06T14:33:18;9.50;6.70
19385;DHT22;9828;54.122;17.974;2023-04-06T14:38:40;9.50;6.60
19385;DHT22;9828;54.122;17.974;2023-04-06T14:44:01;9.50;6.70
19385;DHT22;9828;54.122;17.974;2023-04-06T14:49:24;9.50;7.00
19385;DHT22;9828;54.122;17.974;2023-04-06T14:54:45;9.60;6.80
19385;DHT22;9828;54.122;17.974;2023-04-06T15:00:07;9.40;6.50
19385;DHT22;9828;54.122;17.974;2023-04-06T15:05:30;9.40;7.00
19385;DHT22;9828;54.122;17.974;2023-04-06T15:10:52;9.20;6.90
19385;DHT22;9828;54.122;17.974;2023-04-06T15:16:15;8.90;7.50
19385;DHT22;9828;54.122;17.974;2023-04-06T15:21:37;8.90;7.90
19385;DHT22;9828;54.122;17.974;2023-04-06T15:26:58;9.00;7.80
19385;DHT22;9828;54.122;17.974;2023-04-06T15:32:20;8.90;8.20
19385;DHT22;9828;54.122;17.974;2023-04-06T15:37:41;9.00;8.50
19385;DHT22;9828;54.122;17.974;2023-04-06T15:43:02;8.90;9.10
19385;DHT22;9828;54.122;17.974;2023-04-06T15:48:24;8.60;10.10
19385;DHT22;9828;54.122;17.974;2023-04-06T15:53:45;8.50;10.70
19385;DHT22;9828;54.122;17.974;2023-04-06T15:59:07;8.40;11.20
19385;DHT22;9828;54.122;17.974;2023-04-06T16:04:28;8.30;11.30
19385;DHT22;9828;54.122;17.974;2023-04-06T16:10:00;8.10;11.90
19385;DHT22;9828;54.122;17.974;2023-04-06T16:15:23;7.80;12.40
19385;DHT22;9828;54.122;17.974;2023-04-06T16:20:44;7.60;13.00
19385;DHT22;9828;54.122;17.974;2023-04-06T16:26:13;7.30;13.70
19385;DHT22;9828;54.122;17.974;2023-04-06T16:31:35;7.30;14.50
19385;DHT22;9828;54.122;17.974;2023-04-06T16:36:56;7.20;15.10
19385;DHT22;9828;54.122;17.974;2023-04-06T16:42:18;6.80;16.00
19385;DHT22;9828;54.122;17.974;2023-04-06T16:47:40;6.60;17.40
19385;DHT22;9828;54.122;17.974;2023-04-06T16:53:01;6.60;18.10
19385;DHT22;9828;54.122;17.974;2023-04-06T16:58:23;6.40;18.90
19385;DHT22;9828;54.122;17.974;2023-04-06T17:03:44;6.20;20.20
19385;DHT22;9828;54.122;17.974;2023-04-06T17:09:07;6.10;22.80
19385;DHT22;9828;54.122;17.974;2023-04-06T17:14:28;6.00;24.60
19385;DHT22;9828;54.122;17.974;2023-04-06T17:19:49;5.80;1.00
19385;DHT22;9828;54.122;17.974;2023-04-06T17:25:10;5.80;1.00
19385;DHT22;9828;54.122;17.974;2023-04-06T17:30:32;5.80;1.00
19385;DHT22;9828;54.122;17.974;2023-04-06T17:35:54;5.80;1.00
19385;DHT22;9828;54.122;17.974;2023-04-06T17:41:15;5.60;1.00
19385;DHT22;9828;54.122;17.974;2023-04-06T17:46:36;5.50;1.00
19385;DHT22;9828;54.122;17.974;2023-04-06T17:51:57;5.50;21.40
19385;DHT22;9828;54.122;17.974;2023-04-06T17:57:19;5.50;1.00
19385;DHT22;9828;54.122;17.974;2023-04-06T18:02:41;5.40;52.30
19385;DHT22;9828;54.122;17.974;2023-04-06T18:08:02;5.40;37.30
19385;DHT22;9828;54.122;17.974;2023-04-06T18:13:23;5.20;99.90
19385;DHT22;9828;54.122;17.974;2023-04-06T18:18:44;5.20;99.90
19385;DHT22;9828;54.122;17.974;2023-04-06T18:24:05;5.10;99.90
19385;DHT22;9828;54.122;17.974;2023-04-06T18:29:27;5.00;99.90
19385;DHT22;9828;54.122;17.974;2023-04-06T18:34:48;5.00;1.00
19385;DHT22;9828;54.122;17.974;2023-04-06T18:40:29;5.00;1.00
19385;DHT22;9828;54.122;17.974;2023-04-06T18:45:51;4.90;99.90
19385;DHT22;9828;54.122;17.974;2023-04-06T18:51:12;4.90;99.90
19385;DHT22;9828;54.122;17.974;2023-04-06T18:56:33;4.90;44.70
19385;DHT22;9828;54.122;17.974;2023-04-06T19:01:54;4.90;95.50
19385;DHT22;9828;54.122;17.974;2023-04-06T19:07:16;4.80;97.00
19385;DHT22;9828;54.122;17.974;2023-04-06T19:12:37;4.80;97.50
19385;DHT22;9828;54.122;17.974;2023-04-06T19:17:59;4.80;98.00
19385;DHT22;9828;54.122;17.974;2023-04-06T19:23:20;4.80;97.70
19385;DHT22;9828;54.122;17.974;2023-04-06T19:28:42;4.80;98.90
19385;DHT22;9828;54.122;17.974;2023-04-06T19:34:03;4.80;99.20
19385;DHT22;9828;54.122;17.974;2023-04-06T19:39:25;4.80;99.00
19385;DHT22;9828;54.122;17.974;2023-04-06T19:44:47;4.90;98.10
19385;DHT22;9828;54.122;17.974;2023-04-06T19:50:08;4.90;98.40
19385;DHT22;9828;54.122;17.974;2023-04-06T19:55:31;4.80;99.20
19385;DHT22;9828;54.122;17.974;2023-04-06T20:00:52;4.60;99.50
19385;DHT22;9828;54.122;17.974;2023-04-06T20:06:13;4.70;99.90
19385;DHT22;9828;54.122;17.974;2023-04-06T20:11:34;4.60;99.90
19385;DHT22;9828;54.122;17.974;2023-04-06T20:16:56;4.50;99.90
19385;DHT22;9828;54.122;17.974;2023-04-06T20:22:17;4.40;99.90
19385;DHT22;9828;54.122;17.974;2023-04-06T20:27:38;4.30;99.90
19385;DHT22;9828;54.122;17.974;2023-04-06T20:32:59;4.30;99.90
19385;DHT22;9828;54.122;17.974;2023-04-06T20:38:21;4.40;99.90
19385;DHT22;9828;54.122;17.974;2023-04-06T20:43:48;4.50;99.90
19385;DHT22;9828;54.122;17.974;2023-04-06T20:49:09;4.40;99.90
19385;DHT22;9828;54.122;17.974;2023-04-06T20:54:30;4.60;99.90
19385;DHT22;9828;54.122;17.974;2023-04-06T20:59:52;4.50;99.90
19385;DHT22;9828;54.122;17.974;2023-04-06T21:05:13;4.60;99.90
19385;DHT22;9828;54.122;17.974;2023-04-06T21:10:34;4.40;99.90
19385;DHT22;9828;54.122;17.974;2023-04-06T21:15:56;4.40;99.90
19385;DHT22;9828;54.122;17.974;2023-04-06T21:21:17;4.20;99.90
19385;DHT22;9828;54.122;17.974;2023-04-06T21:26:38;4.10;99.90
19385;DHT22;9828;54.122;17.974;2023-04-06T21:31:59;4.20;99.90
19385;DHT22;9828;54.122;17.974;2023-04-06T21:37:20;4.00;99.90
19385;DHT22;9828;54.122;17.974;2023-04-06T21:42:41;4.10;99.90
19385;DHT22;9828;54.122;17.974;2023-04-06T21:48:02;4.20;99.90
19385;DHT22;9828;54.122;17.974;2023-04-06T21:53:24;4.20;99.90
19385;DHT22;9828;54.122;17.974;2023-04-06T21:58:45;4.10;99.90
19385;DHT22;9828;54.122;17.974;2023-04-06T22:04:06;4.20;99.90
19385;DHT22;9828;54.122;17.974;2023-04-06T22:09:27;4.20;99.90
19385;DHT22;9828;54.122;17.974;2023-04-06T22:14:48;4.10;99.90
19385;DHT22;9828;54.122;17.974;2023-04-06T22:20:09;4.10;99.90
19385;DHT22;9828;54.122;17.974;2023-04-06T22:25:31;4.00;99.90
19385;DHT22;9828;54.122;17.974;2023-04-06T22:30:52;3.90;99.90
19385;DHT22;9828;54.122;17.974;2023-04-06T22:36:13;4.00;99.90
19385;DHT22;9828;54.122;17.974;2023-04-06T22:41:35;4.10;99.90
19385;DHT22;9828;54.122;17.974;2023-04-06T22:46:56;4.10;99.90
19385;DHT22;9828;54.122;17.974;2023-04-06T22:52:17;4.10;99.90
19385;DHT22;9828;54.122;17.974;2023-04-06T22:57:38;4.10;99.90
19385;DHT22;9828;54.122;17.974;2023-04-06T23:03:00;4.00;99.90
19385;DHT22;9828;54.122;17.974;2023-04-06T23:08:21;3.80;99.90
19385;DHT22;9828;54.122;17.974;2023-04-06T23:13:42;3.80;99.90
19385;DHT22;9828;54.122;17.974;2023-04-06T23:19:03;3.80;99.90
19385;DHT22;9828;54.122;17.974;2023-04-06T23:24:24;3.90;99.90
19385;DHT22;9828;54.122;17.974;2023-04-06T23:29:47;4.00;99.90
19385;DHT22;9828;54.122;17.974;2023-04-06T23:35:08;4.00;99.90
19385;DHT22;9828;54.122;17.974;2023-04-06T23:40:29;4.00;99.90
19385;DHT22;9828;54.122;17.974;2023-04-06T23:45:50;3.90;99.90
19385;DHT22;9828;54.122;17.974;2023-04-06T23:51:11;3.90;99.90
19385;DHT22;9828;54.122;17.974;2023-04-06T23:56:32;4.00;99.90
